Time;durP1;ratioP1;P1;durP2;ratioP2;P2;SDS_P1;SDS_P2;PMS_P1;PMS_P2;Temp;Humidity;BMP_temperature;BMP_pressure;BME280_temperature;BME280_humidity;BME280_pressure;Samples;Min_cycle;Max_cycle;Signal;HPM_P1;HPM_P2
2021/11/17 02:27:52;;;;;;;19.37;11.17;;;;;;;;;;4967533;28;20245;-52
2021/11/17 02:30:23;;;;;;;17.63;11.33;;;;;;;;;;4985698;28;20508;-52
2021/11/17 02:32:49;;;;;;;17.93;11.30;;;;;;;;;;4986098;28;20670;-54
2021/11/17 02:35:23;;;;;;;16.50;10.70;;;;;;;;;;4984876;28;20599;-52
2021/11/17 02:38:08;;;;;;;19.93;11.23;;;;;;;;;;4999170;28;20228;-52
2021/11/17 02:40:41;;;;;;;17.60;11.87;;;;;;;;;;4988623;28;20587;-53
2021/11/17 02:43:14;;;;;;;16.37;11.27;;;;;;;;;;5007348;28;20289;-52
2021/11/17 02:45:59;;;;;;;17.90;12.13;;;;;;;;;;4982490;28;20190;-53
2021/11/17 02:48:35;;;;;;;17.93;12.73;;;;;;;;;;4990422;28;20277;-53
2021/11/17 02:51:09;;;;;;;17.00;11.27;;;;;;;;;;4967825;28;20649;-53
2021/11/17 02:53:39;;;;;;;18.13;12.47;;;;;;;;;;4983710;28;20288;-52
2021/11/17 02:56:07;;;;;;;17.03;11.37;;;;;;;;;;5001125;28;20207;-53
2021/11/17 02:58:34;;;;;;;20.33;12.80;;;;;;;;;;5004248;28;20190;-53
2021/11/17 03:01:19;;;;;;;19.30;12.37;;;;;;;;;;4996806;28;20186;-53
2021/11/17 03:03:52;;;;;;;20.53;13.50;;;;;;;;;;5008193;28;20178;-53
2021/11/17 03:06:24;;;;;;;18.33;12.33;;;;;;;;;;4966274;28;20262;-52
2021/11/17 03:09:07;;;;;;;19.90;13.20;;;;;;;;;;5003312;28;20207;-52
2021/11/17 03:11:53;;;;;;;19.83;13.53;;;;;;;;;;4981132;28;20186;-53
2021/11/17 03:14:28;;;;;;;19.33;12.07;;;;;;;;;;4971601;28;20270;-52
2021/11/17 03:16:55;;;;;;;23.40;13.33;;;;;;;;;;4958276;28;20194;-52
2021/11/17 03:19:38;;;;;;;17.97;12.60;;;;;;;;;;4987214;28;20234;-52
2021/11/17 03:22:14;;;;;;;19.77;13.50;;;;;;;;;;4949283;28;20190;-52
2021/11/17 03:24:59;;;;;;;21.07;13.67;;;;;;;;;;4972099;28;20193;-53
2021/11/17 03:27:25;;;;;;;21.93;13.50;;;;;;;;;;4970773;28;20274;-53
2021/11/17 03:30:00;;;;;;;16.80;12.43;;;;;;;;;;4970244;28;20198;-52
2021/11/17 03:32:29;;;;;;;20.87;13.23;;;;;;;;;;4986731;28;20280;-53
2021/11/17 03:35:14;;;;;;;20.73;14.03;;;;;;;;;;4988741;28;20570;-53
2021/11/17 03:37:59;;;;;;;20.90;13.43;;;;;;;;;;4972014;28;20286;-54
2021/11/17 03:40:28;;;;;;;18.00;12.47;;;;;;;;;;4987805;28;20658;-52
2021/11/17 03:43:14;;;;;;;23.47;13.17;;;;;;;;;;4989660;28;20187;-53
2021/11/17 03:46:01;;;;;;;20.60;12.57;;;;;;;;;;4969867;28;20210;-52
2021/11/17 03:48:27;;;;;;;20.80;12.97;;;;;;;;;;4987609;28;20717;-53
2021/11/17 03:50:59;;;;;;;18.40;11.97;;;;;;;;;;4990487;28;20662;-53
2021/11/17 03:53:25;;;;;;;22.37;13.93;;;;;;;;;;4970284;28;20250;-53
2021/11/17 03:56:06;;;;;;;19.20;14.17;;;;;;;;;;4988251;28;20203;-52
2021/11/17 03:58:35;;;;;;;22.00;13.23;;;;;;;;;;4988215;28;20258;-52
2021/11/17 04:01:08;;;;;;;22.83;13.00;;;;;;;;;;4970414;28;20269;-53
2021/11/17 04:03:54;;;;;;;21.00;13.37;;;;;;;;;;4970176;28;20190;-53
2021/11/17 04:06:21;;;;;;;20.27;13.10;;;;;;;;;;4961179;28;20190;-52
2021/11/17 04:08:54;;;;;;;23.63;13.43;;;;;;;;;;4987566;28;20524;-53
2021/11/17 04:11:33;;;;;;;21.37;13.27;;;;;;;;;;4955123;28;20213;-53
2021/11/17 04:14:05;;;;;;;20.67;12.70;;;;;;;;;;4952155;28;20725;-53
2021/11/17 04:16:50;;;;;;;21.43;13.67;;;;;;;;;;4960935;28;20210;-53
2021/11/17 04:19:16;;;;;;;24.93;13.90;;;;;;;;;;4947563;28;20190;-54
2021/11/17 04:22:08;;;;;;;25.97;14.13;;;;;;;;;;4975074;28;20187;-52
2021/11/17 04:24:41;;;;;;;22.13;14.17;;;;;;;;;;4967099;28;20245;-52
2021/11/17 04:27:14;;;;;;;22.33;13.60;;;;;;;;;;4977288;28;20184;-52
2021/11/17 04:29:52;;;;;;;21.77;14.43;;;;;;;;;;4983699;28;20194;-53
2021/11/17 04:32:37;;;;;;;21.63;13.67;;;;;;;;;;4979590;28;20564;-53
2021/11/17 04:35:24;;;;;;;24.03;14.20;;;;;;;;;;4967546;28;20187;-52
2021/11/17 04:38:09;;;;;;;21.57;13.27;;;;;;;;;;4976563;28;20211;-53
2021/11/17 04:40:50;;;;;;;22.57;14.33;;;;;;;;;;4979591;28;20927;-53
2021/11/17 04:43:35;;;;;;;21.80;14.13;;;;;;;;;;4981871;28;20183;-53
2021/11/17 04:46:24;;;;;;;20.63;13.40;;;;;;;;;;4970440;28;20176;-53
2021/11/17 04:48:50;;;;;;;22.60;13.73;;;;;;;;;;4983397;28;20273;-53
2021/11/17 04:51:19;;;;;;;20.13;13.77;;;;;;;;;;4965470;28;20184;-53
2021/11/17 04:53:51;;;;;;;22.13;13.63;;;;;;;;;;4982997;28;20187;-54
2021/11/17 04:56:17;;;;;;;21.40;13.47;;;;;;;;;;4975795;28;20214;-52
2021/11/17 04:59:02;;;;;;;21.73;13.30;;;;;;;;;;4980733;28;20179;-52
2021/11/17 05:01:52;;;;;;;19.93;13.30;;;;;;;;;;4964203;28;20650;-53
2021/11/17 05:04:30;;;;;;;20.90;14.67;;;;;;;;;;4965729;28;20257;-52
2021/11/17 05:06:56;;;;;;;22.60;13.90;;;;;;;;;;4963681;28;20253;-52
2021/11/17 05:09:29;;;;;;;24.53;15.03;;;;;;;;;;4990986;28;20568;-52
2021/11/17 05:12:05;;;;;;;25.90;13.20;;;;;;;;;;4963958;28;20303;-52
2021/11/17 05:14:34;;;;;;;24.10;14.53;;;;;;;;;;5003869;28;20198;-53
2021/11/17 05:17:07;;;;;;;22.13;14.00;;;;;;;;;;5003301;28;20226;-53
2021/11/17 05:19:39;;;;;;;23.90;13.87;;;;;;;;;;5005520;28;20186;-53
2021/11/17 05:22:15;;;;;;;22.60;14.93;;;;;;;;;;4969656;28;20187;-53
2021/11/17 05:25:00;;;;;;;22.93;14.23;;;;;;;;;;4971748;28;20181;-53
2021/11/17 05:27:42;;;;;;;22.37;13.20;;;;;;;;;;4986840;28;20206;-53
2021/11/17 05:30:27;;;;;;;19.37;12.93;;;;;;;;;;5005957;28;20201;-53
2021/11/17 05:33:02;;;;;;;22.50;13.73;;;;;;;;;;5002964;28;20246;-53
2021/11/17 05:35:38;;;;;;;21.07;14.13;;;;;;;;;;4995883;28;20217;-53
2021/11/17 05:38:20;;;;;;;23.60;13.20;;;;;;;;;;4965056;28;20206;-53
2021/11/17 05:40:58;;;;;;;22.40;14.13;;;;;;;;;;4988911;28;20668;-53
2021/11/17 05:43:36;;;;;;;23.60;14.03;;;;;;;;;;4993259;28;20182;-53
2021/11/17 05:46:06;;;;;;;22.53;14.20;;;;;;;;;;4982452;28;20664;-53
2021/11/17 05:48:58;;;;;;;22.57;14.03;;;;;;;;;;5004530;28;20663;-53
2021/11/17 05:51:47;;;;;;;20.50;13.33;;;;;;;;;;4997798;28;20697;-53
2021/11/17 05:54:16;;;;;;;20.57;13.93;;;;;;;;;;5007833;28;20545;-53
2021/11/17 05:56:43;;;;;;;23.97;14.27;;;;;;;;;;4984263;28;20300;-53
2021/11/17 05:59:18;;;;;;;22.17;13.10;;;;;;;;;;4983573;28;20179;-53
2021/11/17 06:01:53;;;;;;;22.13;13.67;;;;;;;;;;4981789;28;20652;-53
2021/11/17 06:04:19;;;;;;;22.90;13.63;;;;;;;;;;4972135;28;20255;-54
2021/11/17 06:06:46;;;;;;;18.03;12.60;;;;;;;;;;4983116;28;20195;-52
2021/11/17 06:09:12;;;;;;;23.53;14.10;;;;;;;;;;4992856;28;20270;-54
2021/11/17 06:11:41;;;;;;;25.23;13.80;;;;;;;;;;5001816;28;20190;-53
2021/11/17 06:14:12;;;;;;;25.27;14.20;;;;;;;;;;4988662;28;20377;-53
2021/11/17 06:16:50;;;;;;;24.67;14.13;;;;;;;;;;4972144;28;20688;-54
2021/11/17 06:19:18;;;;;;;27.50;15.20;;;;;;;;;;5005846;28;20181;-54
2021/11/17 06:21:45;;;;;;;24.23;14.77;;;;;;;;;;5008180;28;20198;-53
2021/11/17 06:24:12;;;;;;;23.90;14.63;;;;;;;;;;5009132;28;20188;-54
2021/11/17 06:26:40;;;;;;;25.53;15.03;;;;;;;;;;5005580;28;20187;-52
2021/11/17 06:29:24;;;;;;;26.30;15.03;;;;;;;;;;5012050;28;20186;-52
2021/11/17 06:31:51;;;;;;;24.73;15.50;;;;;;;;;;5004224;28;20195;-53
2021/11/17 06:34:24;;;;;;;21.60;15.03;;;;;;;;;;4999246;28;20186;-52
2021/11/17 06:36:50;;;;;;;22.30;14.27;;;;;;;;;;4992116;28;20211;-52
2021/11/17 06:39:16;;;;;;;24.27;15.13;;;;;;;;;;5008027;28;20640;-53
2021/11/17 06:41:42;;;;;;;24.27;14.57;;;;;;;;;;5003855;28;20186;-52
2021/11/17 06:44:08;;;;;;;26.23;15.17;;;;;;;;;;5008380;28;20726;-52
2021/11/17 06:46:34;;;;;;;21.93;13.97;;;;;;;;;;5003773;28;20178;-52
2021/11/17 06:49:00;;;;;;;23.67;14.33;;;;;;;;;;5007682;28;20262;-53
2021/11/17 06:51:26;;;;;;;26.07;14.90;;;;;;;;;;5008561;28;20254;-53
2021/11/17 06:53:52;;;;;;;25.63;14.07;;;;;;;;;;4996509;28;20189;-53
2021/11/17 06:56:20;;;;;;;21.90;13.43;;;;;;;;;;4996730;28;20213;-53
2021/11/17 06:58:46;;;;;;;25.40;14.60;;;;;;;;;;4999114;28;20187;-53
2021/11/17 07:01:12;;;;;;;22.70;15.47;;;;;;;;;;5005455;28;20183;-54
2021/11/17 07:03:39;;;;;;;26.00;14.67;;;;;;;;;;5005203;28;20182;-52
2021/11/17 07:06:05;;;;;;;24.97;14.50;;;;;;;;;;4997279;28;20185;-53
2021/11/17 07:08:31;;;;;;;23.43;14.50;;;;;;;;;;5003749;28;20182;-52
2021/11/17 07:10:57;;;;;;;25.57;15.40;;;;;;;;;;5001106;28;20214;-52
2021/11/17 07:13:24;;;;;;;22.73;14.83;;;;;;;;;;5000514;28;20223;-52
2021/11/17 07:15:50;;;;;;;24.13;14.77;;;;;;;;;;4993573;28;20269;-52
2021/11/17 07:18:16;;;;;;;23.37;15.27;;;;;;;;;;4997851;28;20649;-53
2021/11/17 07:20:43;;;;;;;23.87;14.77;;;;;;;;;;5011165;28;20174;-53
2021/11/17 07:23:09;;;;;;;25.20;13.97;;;;;;;;;;4993827;28;20191;-53
2021/11/17 07:25:35;;;;;;;22.83;14.77;;;;;;;;;;5001072;28;20182;-52
2021/11/17 07:28:02;;;;;;;24.30;14.17;;;;;;;;;;4985664;28;20186;-53
2021/11/17 07:30:33;;;;;;;21.93;14.57;;;;;;;;;;5011064;28;20179;-52
2021/11/17 07:33:02;;;;;;;24.80;14.73;;;;;;;;;;4994039;28;20197;-52
2021/11/17 07:35:29;;;;;;;20.60;13.77;;;;;;;;;;4994206;28;20260;-52
2021/11/17 07:38:01;;;;;;;23.63;15.07;;;;;;;;;;4992241;28;20289;-53
2021/11/17 07:40:28;;;;;;;23.00;14.27;;;;;;;;;;4993698;28;20206;-53
2021/11/17 07:42:55;;;;;;;20.97;13.13;;;;;;;;;;5003532;28;20705;-53
2021/11/17 07:45:21;;;;;;;24.57;13.50;;;;;;;;;;5004901;28;20174;-53
2021/11/17 07:47:47;;;;;;;19.67;12.83;;;;;;;;;;5009990;28;20186;-53
2021/11/17 07:50:14;;;;;;;19.77;13.70;;;;;;;;;;4997006;28;20198;-53
2021/11/17 07:52:40;;;;;;;20.43;12.87;;;;;;;;;;5004938;28;20216;-52
2021/11/17 07:55:07;;;;;;;21.10;13.00;;;;;;;;;;5010006;28;20186;-53
2021/11/17 07:57:33;;;;;;;18.77;13.40;;;;;;;;;;5006112;28;20210;-53
2021/11/17 08:00:00;;;;;;;19.07;13.43;;;;;;;;;;5008602;28;20185;-52
2021/11/17 08:02:26;;;;;;;20.87;13.93;;;;;;;;;;4997358;28;20186;-53
2021/11/17 08:04:52;;;;;;;19.13;13.27;;;;;;;;;;5010822;28;20650;-53
2021/11/17 08:07:19;;;;;;;18.70;13.30;;;;;;;;;;5001186;28;20811;-54
2021/11/17 08:09:46;;;;;;;19.53;13.20;;;;;;;;;;4993043;28;20298;-53
2021/11/17 08:12:12;;;;;;;19.80;12.53;;;;;;;;;;4992111;28;20654;-52
2021/11/17 08:14:38;;;;;;;17.70;12.60;;;;;;;;;;5007782;28;20198;-52
2021/11/17 08:17:05;;;;;;;18.33;12.17;;;;;;;;;;4994316;28;20217;-53
2021/11/17 08:19:31;;;;;;;18.47;11.90;;;;;;;;;;5010557;28;20206;-52
2021/11/17 08:21:58;;;;;;;21.63;13.27;;;;;;;;;;4999417;28;20185;-52
2021/11/17 08:24:24;;;;;;;16.57;12.53;;;;;;;;;;5010861;28;20747;-52
2021/11/17 08:26:50;;;;;;;17.63;12.67;;;;;;;;;;4963227;28;20202;-52
2021/11/17 08:29:16;;;;;;;16.80;11.87;;;;;;;;;;5007352;28;20548;-52
2021/11/17 08:31:42;;;;;;;15.77;11.90;;;;;;;;;;4997711;28;20194;-53
2021/11/17 08:34:08;;;;;;;20.30;12.17;;;;;;;;;;5009822;28;20183;-52
2021/11/17 08:36:35;;;;;;;19.40;13.43;;;;;;;;;;5004932;28;20245;-52
2021/11/17 08:39:01;;;;;;;16.90;11.87;;;;;;;;;;5016381;28;20266;-53
2021/11/17 08:41:28;;;;;;;17.00;11.87;;;;;;;;;;5010241;28;20166;-53
2021/11/17 08:43:54;;;;;;;20.70;12.77;;;;;;;;;;5009822;28;20186;-53
2021/11/17 08:46:20;;;;;;;18.33;12.70;;;;;;;;;;4991110;28;20332;-53
2021/11/17 08:48:47;;;;;;;17.43;12.20;;;;;;;;;;4975999;28;20179;-53
2021/11/17 08:51:16;;;;;;;17.67;12.30;;;;;;;;;;4999636;28;20191;-52
2021/11/17 08:53:45;;;;;;;16.23;11.30;;;;;;;;;;4991996;28;20183;-52
2021/11/17 08:56:11;;;;;;;19.47;11.27;;;;;;;;;;4981826;28;20222;-52
2021/11/17 08:58:39;;;;;;;19.20;10.90;;;;;;;;;;4988350;28;20751;-52
2021/11/17 09:01:06;;;;;;;16.53;10.77;;;;;;;;;;5002182;28;20233;-53
2021/11/17 09:03:33;;;;;;;18.73;11.63;;;;;;;;;;5001843;28;20680;-52
2021/11/17 09:06:00;;;;;;;14.90;10.53;;;;;;;;;;4996274;28;20232;-52
2021/11/17 09:08:26;;;;;;;19.40;12.57;;;;;;;;;;5005438;28;20190;-53
2021/11/17 09:10:57;;;;;;;20.17;12.00;;;;;;;;;;5015071;28;20714;-53
2021/11/17 09:13:23;;;;;;;17.37;10.87;;;;;;;;;;5011439;28;20222;-52
2021/11/17 09:15:50;;;;;;;15.43;11.07;;;;;;;;;;5028750;28;20213;-53
2021/11/17 09:18:17;;;;;;;18.83;10.90;;;;;;;;;;5004394;28;20195;-52
2021/11/17 09:20:44;;;;;;;17.27;10.90;;;;;;;;;;4996740;28;20179;-52
2021/11/17 09:23:11;;;;;;;18.10;10.07;;;;;;;;;;5009983;28;20182;-51
2021/11/17 09:25:37;;;;;;;16.00;10.90;;;;;;;;;;5009406;28;20633;-52
2021/11/17 09:28:04;;;;;;;15.67;11.20;;;;;;;;;;5006017;28;20187;-53
2021/11/17 09:30:31;;;;;;;18.10;11.30;;;;;;;;;;4989424;28;20832;-52
2021/11/17 09:33:00;;;;;;;15.33;10.90;;;;;;;;;;5004557;28;20269;-53
2021/11/17 09:35:30;;;;;;;19.47;11.50;;;;;;;;;;4991042;28;20646;-53
2021/11/17 09:37:57;;;;;;;17.17;12.40;;;;;;;;;;5005688;28;20197;-52
2021/11/17 09:40:26;;;;;;;19.30;11.97;;;;;;;;;;5005162;28;20175;-53
2021/11/17 09:42:53;;;;;;;16.93;10.47;;;;;;;;;;5009566;28;20214;-54
2021/11/17 09:45:19;;;;;;;16.97;11.27;;;;;;;;;;4990499;28;20646;-53
2021/11/17 09:47:46;;;;;;;17.67;10.53;;;;;;;;;;5000255;28;20183;-53
2021/11/17 09:50:25;;;;;;;18.60;12.03;;;;;;;;;;5008129;28;20186;-52
2021/11/17 09:52:57;;;;;;;16.17;11.37;;;;;;;;;;5009937;28;20712;-52
2021/11/17 09:55:29;;;;;;;18.17;11.40;;;;;;;;;;5024772;28;20251;-53
2021/11/17 09:58:16;;;;;;;16.57;12.77;;;;;;;;;;5009285;28;20199;-53
2021/11/17 10:00:52;;;;;;;21.43;12.33;;;;;;;;;;5005949;28;20181;-53
2021/11/17 10:03:36;;;;;;;16.30;11.30;;;;;;;;;;5004193;28;20269;-53
2021/11/17 10:11:57;;;;;;;16.93;11.67;;;;;;;;;;5008293;28;20197;-52
2021/11/17 10:14:32;;;;;;;18.90;11.27;;;;;;;;;;4952570;28;20549;-53
2021/11/17 10:16:59;;;;;;;16.27;10.47;;;;;;;;;;4975614;28;20691;-53
2021/11/17 10:19:28;;;;;;;22.07;11.77;;;;;;;;;;4960901;28;20179;-53
2021/11/17 10:21:59;;;;;;;17.63;10.80;;;;;;;;;;4989134;28;20198;-53
2021/11/17 10:24:40;;;;;;;18.97;12.13;;;;;;;;;;4959622;28;20199;-53
2021/11/17 10:27:06;;;;;;;19.00;11.60;;;;;;;;;;4964878;28;20652;-53
2021/11/17 10:29:33;;;;;;;23.20;12.53;;;;;;;;;;4971649;28;20190;-53
2021/11/17 10:32:05;;;;;;;20.00;11.87;;;;;;;;;;4966923;28;20209;-53
2021/11/17 10:34:38;;;;;;;16.77;11.63;;;;;;;;;;4948260;28;20191;-53
2021/11/17 10:37:08;;;;;;;18.47;10.73;;;;;;;;;;4974336;28;20198;-53
2021/11/17 10:39:40;;;;;;;19.90;11.87;;;;;;;;;;4956617;28;20219;-52
2021/11/17 10:42:08;;;;;;;15.73;10.97;;;;;;;;;;4961517;28;20201;-53
2021/11/17 10:44:35;;;;;;;18.17;11.50;;;;;;;;;;4993069;28;20620;-53
2021/11/17 10:47:01;;;;;;;18.13;11.03;;;;;;;;;;4963791;28;20193;-51
2021/11/17 10:49:28;;;;;;;15.57;11.50;;;;;;;;;;4988525;28;20210;-52
2021/11/17 10:52:03;;;;;;;20.47;12.17;;;;;;;;;;4992820;28;20651;-52
2021/11/17 10:54:30;;;;;;;16.30;10.57;;;;;;;;;;4985599;28;20676;-53
2021/11/17 10:57:04;;;;;;;19.23;9.97;;;;;;;;;;4991710;28;20250;-53
2021/11/17 10:59:30;;;;;;;17.60;10.63;;;;;;;;;;4992910;28;20190;-54
2021/11/17 11:01:56;;;;;;;20.63;11.77;;;;;;;;;;4990920;28;20190;-53
2021/11/17 11:04:28;;;;;;;20.80;12.67;;;;;;;;;;4973242;28;20179;-53
2021/11/17 11:07:27;;;;;;;17.57;11.80;;;;;;;;;;4992314;28;20194;-53
2021/11/17 11:09:56;;;;;;;19.53;12.30;;;;;;;;;;4936011;28;20282;-53
2021/11/17 11:12:25;;;;;;;22.27;12.07;;;;;;;;;;4965574;28;20332;-53
2021/11/17 11:14:55;;;;;;;20.70;13.07;;;;;;;;;;5003779;28;20186;-53
2021/11/17 11:17:25;;;;;;;20.33;13.17;;;;;;;;;;5000819;28;20647;-52
2021/11/17 11:19:51;;;;;;;18.53;11.87;;;;;;;;;;5022711;28;20179;-53
2021/11/17 11:22:17;;;;;;;21.37;12.40;;;;;;;;;;5009020;28;20681;-53
2021/11/17 11:24:44;;;;;;;24.63;13.27;;;;;;;;;;5025476;28;20183;-52
2021/11/17 11:27:15;;;;;;;19.40;12.87;;;;;;;;;;5015403;28;20188;-52
2021/11/17 11:30:16;;;;;;;21.67;13.70;;;;;;;;;;5000253;28;20218;-52
2021/11/17 11:32:44;;;;;;;21.83;14.17;;;;;;;;;;4985998;28;20548;-51
2021/11/17 11:35:10;;;;;;;23.27;12.77;;;;;;;;;;4977213;28;20712;-53
2021/11/17 11:37:36;;;;;;;27.03;14.00;;;;;;;;;;5018839;28;20213;-52
2021/11/17 11:40:05;;;;;;;26.00;14.50;;;;;;;;;;4975424;28;20179;-51
2021/11/17 11:42:39;;;;;;;24.17;14.23;;;;;;;;;;4989551;28;20174;-53
2021/11/17 11:45:08;;;;;;;29.73;16.13;;;;;;;;;;4989777;28;20174;-52
2021/11/17 11:47:54;;;;;;;29.00;16.20;;;;;;;;;;4984276;28;20195;-53
2021/11/17 11:50:33;;;;;;;28.27;16.43;;;;;;;;;;4928260;28;20202;-53
2021/11/17 11:52:59;;;;;;;26.17;16.30;;;;;;;;;;4993008;28;20535;-53
2021/11/17 11:55:26;;;;;;;32.97;18.40;;;;;;;;;;4992831;28;20302;-53
2021/11/17 11:58:23;;;;;;;32.40;18.17;;;;;;;;;;5021145;28;20202;-53
2021/11/17 12:01:00;;;;;;;31.63;18.43;;;;;;;;;;4978693;28;20197;-53
2021/11/17 12:03:28;;;;;;;34.37;20.67;;;;;;;;;;4987464;28;20241;-53
2021/11/17 12:06:04;;;;;;;40.00;20.07;;;;;;;;;;4992846;28;20182;-53
2021/11/17 12:08:35;;;;;;;33.23;20.00;;;;;;;;;;5017753;28;20189;-53
2021/11/17 12:11:01;;;;;;;32.83;19.83;;;;;;;;;;4992084;28;20194;-53
2021/11/17 12:13:32;;;;;;;39.50;21.70;;;;;;;;;;5010231;28;20740;-53
2021/11/17 12:15:59;;;;;;;41.40;22.53;;;;;;;;;;4994691;28;20693;-53
2021/11/17 12:18:25;;;;;;;38.50;21.67;;;;;;;;;;4987484;28;20254;-53
2021/11/17 12:21:12;;;;;;;40.80;22.63;;;;;;;;;;4990408;28;20205;-53
2021/11/17 12:23:42;;;;;;;50.13;24.07;;;;;;;;;;5009836;28;20214;-53
2021/11/17 12:26:17;;;;;;;44.70;24.17;;;;;;;;;;5010668;28;20634;-54
2021/11/17 12:28:43;;;;;;;40.27;23.43;;;;;;;;;;5003017;28;20659;-52
2021/11/17 12:31:30;;;;;;;41.40;23.97;;;;;;;;;;4995937;28;20258;-53
2021/11/17 12:34:11;;;;;;;41.70;23.87;;;;;;;;;;4990124;28;20260;-53
2021/11/17 12:36:48;;;;;;;35.10;20.97;;;;;;;;;;5006980;28;20622;-53
2021/11/17 12:39:16;;;;;;;38.43;20.97;;;;;;;;;;4973288;28;20203;-53
2021/11/17 12:41:43;;;;;;;40.10;22.03;;;;;;;;;;5000650;28;20183;-52
2021/11/17 12:44:12;;;;;;;33.67;20.77;;;;;;;;;;4997682;28;20545;-53
2021/11/17 12:46:44;;;;;;;31.70;19.97;;;;;;;;;;4998039;28;20198;-53
2021/11/17 12:49:14;;;;;;;32.67;19.80;;;;;;;;;;4978430;28;20179;-52
2021/11/17 12:52:00;;;;;;;32.93;18.50;;;;;;;;;;4973870;28;20183;-53
2021/11/17 12:54:36;;;;;;;32.60;18.00;;;;;;;;;;4975530;28;20195;-52
2021/11/17 12:57:12;;;;;;;34.83;18.43;;;;;;;;;;4980119;28;20209;-52
2021/11/17 12:59:44;;;;;;;30.50;17.83;;;;;;;;;;4972847;28;20171;-52
2021/11/17 13:02:23;;;;;;;30.60;18.70;;;;;;;;;;4994984;28;20198;-53
2021/11/17 13:04:51;;;;;;;28.53;18.13;;;;;;;;;;5009763;28;20189;-53
2021/11/17 13:07:36;;;;;;;26.60;17.63;;;;;;;;;;5006461;28;20515;-52
2021/11/17 13:10:05;;;;;;;27.10;16.77;;;;;;;;;;5000758;28;20187;-53
2021/11/17 13:12:36;;;;;;;29.93;17.23;;;;;;;;;;5018400;28;20235;-53
2021/11/17 13:15:08;;;;;;;29.00;18.20;;;;;;;;;;4989895;28;20187;-52
2021/11/17 13:17:39;;;;;;;27.97;17.27;;;;;;;;;;5004205;28;20301;-52
2021/11/17 13:20:25;;;;;;;28.80;17.20;;;;;;;;;;4991285;28;20233;-52
2021/11/17 13:22:54;;;;;;;29.03;16.40;;;;;;;;;;4999922;28;20183;-52
2021/11/17 13:25:28;;;;;;;30.50;18.47;;;;;;;;;;4973323;28;20190;-52
2021/11/17 13:27:56;;;;;;;29.67;17.43;;;;;;;;;;4989896;28;20198;-52
2021/11/17 13:30:27;;;;;;;32.67;18.97;;;;;;;;;;4974573;28;20186;-53
2021/11/17 13:32:53;;;;;;;29.63;17.37;;;;;;;;;;5005745;28;20186;-52
2021/11/17 13:35:31;;;;;;;31.43;16.93;;;;;;;;;;5008341;28;20265;-52
2021/11/17 13:38:11;;;;;;;28.80;17.33;;;;;;;;;;4989514;28;20210;-52
2021/11/17 13:40:40;;;;;;;30.83;19.03;;;;;;;;;;4998689;28;20183;-52
2021/11/17 13:43:07;;;;;;;34.27;18.73;;;;;;;;;;4999573;28;20167;-52
2021/11/17 13:45:34;;;;;;;31.13;19.23;;;;;;;;;;4988302;28;20186;-52
2021/11/17 13:48:00;;;;;;;33.73;20.03;;;;;;;;;;5000475;28;20194;-52
2021/11/17 13:50:30;;;;;;;33.90;20.73;;;;;;;;;;4988119;28;20182;-52
2021/11/17 13:52:57;;;;;;;34.93;18.30;;;;;;;;;;5004552;28;20201;-52
2021/11/17 13:55:25;;;;;;;33.53;20.00;;;;;;;;;;5004383;28;20685;-52
2021/11/17 13:57:52;;;;;;;35.27;21.03;;;;;;;;;;4999690;28;20609;-50
2021/11/17 14:00:20;;;;;;;37.07;20.30;;;;;;;;;;4988192;28;20190;-52
2021/11/17 14:02:47;;;;;;;41.40;20.90;;;;;;;;;;4980740;28;20182;-53
2021/11/17 14:05:14;;;;;;;39.80;21.03;;;;;;;;;;4974816;28;20277;-53
2021/11/17 14:07:40;;;;;;;37.60;21.00;;;;;;;;;;5007794;28;20193;-53
2021/11/17 14:10:07;;;;;;;45.00;22.67;;;;;;;;;;5002896;28;20195;-52
2021/11/17 14:12:34;;;;;;;38.33;22.20;;;;;;;;;;5000998;28;20321;-52
2021/11/17 14:15:00;;;;;;;41.97;21.23;;;;;;;;;;4977834;28;20206;-52
2021/11/17 14:17:26;;;;;;;40.93;23.10;;;;;;;;;;4983641;28;20230;-53
2021/11/17 14:19:53;;;;;;;44.83;21.43;;;;;;;;;;4983802;28;20168;-52
2021/11/17 14:22:19;;;;;;;38.67;21.33;;;;;;;;;;4986975;28;20182;-52
2021/11/17 14:24:46;;;;;;;42.57;22.80;;;;;;;;;;4989863;28;20630;-52
2021/11/17 14:27:14;;;;;;;46.10;23.43;;;;;;;;;;4948787;28;20188;-53
2021/11/17 14:29:53;;;;;;;51.50;23.30;;;;;;;;;;4964466;28;20191;-52
2021/11/17 14:32:30;;;;;;;40.30;22.70;;;;;;;;;;4985057;28;20455;-53
2021/11/17 14:34:56;;;;;;;45.67;22.73;;;;;;;;;;4969454;28;20606;-52
2021/11/17 14:37:22;;;;;;;46.67;22.80;;;;;;;;;;4983866;28;20222;-53
2021/11/17 14:39:49;;;;;;;43.03;23.07;;;;;;;;;;4975168;28;20190;-53
2021/11/17 14:42:18;;;;;;;40.07;22.93;;;;;;;;;;4989777;28;20205;-53
2021/11/17 14:44:45;;;;;;;54.77;24.90;;;;;;;;;;4970674;28;20769;-52
2021/11/17 14:47:11;;;;;;;43.07;22.87;;;;;;;;;;4986148;28;20199;-53
2021/11/17 14:49:38;;;;;;;46.93;23.57;;;;;;;;;;4974822;28;20183;-52
2021/11/17 14:52:07;;;;;;;45.80;23.47;;;;;;;;;;4971937;28;20191;-52
2021/11/17 14:54:34;;;;;;;42.80;23.70;;;;;;;;;;4981953;28;20711;-52
2021/11/17 14:57:00;;;;;;;49.50;25.70;;;;;;;;;;4987289;28;20225;-52
2021/11/17 14:59:26;;;;;;;44.40;25.33;;;;;;;;;;4983124;28;20198;-52
2021/11/17 15:01:52;;;;;;;43.07;23.43;;;;;;;;;;4961513;28;20715;-52
2021/11/17 15:04:19;;;;;;;48.93;26.07;;;;;;;;;;4989433;28;20665;-52
2021/11/17 15:06:45;;;;;;;56.20;25.63;;;;;;;;;;4981594;28;20191;-52
2021/11/17 15:09:12;;;;;;;46.97;25.33;;;;;;;;;;4996572;28;20168;-52
2021/11/17 15:11:50;;;;;;;47.57;24.13;;;;;;;;;;4976780;28;20234;-52
2021/11/17 15:14:17;;;;;;;50.33;24.90;;;;;;;;;;5002228;28;20249;-52
2021/11/17 15:16:43;;;;;;;45.43;24.87;;;;;;;;;;5006510;28;20903;-52
2021/11/17 15:19:09;;;;;;;43.93;24.50;;;;;;;;;;5006875;28;21686;-52
2021/11/17 15:21:35;;;;;;;48.67;23.40;;;;;;;;;;5005848;28;20214;-52
2021/11/17 15:24:01;;;;;;;46.53;24.90;;;;;;;;;;5010561;28;20182;-54
2021/11/17 15:26:28;;;;;;;46.00;23.70;;;;;;;;;;5003917;28;20182;-52
2021/11/17 15:28:55;;;;;;;52.97;24.30;;;;;;;;;;5011106;28;20194;-53
2021/11/17 15:31:25;;;;;;;46.77;24.73;;;;;;;;;;4986279;28;20175;-54
2021/11/17 15:33:52;;;;;;;54.10;26.90;;;;;;;;;;4998389;28;20257;-54
2021/11/17 15:36:19;;;;;;;52.10;26.17;;;;;;;;;;5007035;28;20228;-53
2021/11/17 15:38:47;;;;;;;47.27;23.93;;;;;;;;;;4973920;28;20210;-53
2021/11/17 15:41:14;;;;;;;56.17;24.77;;;;;;;;;;4981160;28;20552;-54
2021/11/17 15:43:42;;;;;;;46.53;24.87;;;;;;;;;;4987656;28;20197;-54
2021/11/17 15:46:09;;;;;;;44.73;23.33;;;;;;;;;;4988691;28;20186;-53
2021/11/17 15:48:36;;;;;;;53.40;25.90;;;;;;;;;;4983132;28;20215;-54
2021/11/17 15:51:05;;;;;;;53.37;24.70;;;;;;;;;;5012120;28;20185;-54
2021/11/17 15:53:31;;;;;;;50.40;23.83;;;;;;;;;;4989830;28;20539;-53
2021/11/17 15:55:58;;;;;;;44.50;22.97;;;;;;;;;;5011066;28;20277;-53
2021/11/17 15:58:24;;;;;;;51.57;24.00;;;;;;;;;;5011090;28;20205;-53
2021/11/17 16:00:51;;;;;;;48.87;24.30;;;;;;;;;;4997711;28;20186;-53
2021/11/17 16:03:18;;;;;;;49.40;23.53;;;;;;;;;;5008192;28;20588;-53
2021/11/17 16:05:45;;;;;;;47.63;25.63;;;;;;;;;;5010574;28;20175;-54
2021/11/17 16:08:12;;;;;;;51.33;23.93;;;;;;;;;;4990869;28;20193;-53
2021/11/17 16:10:41;;;;;;;58.07;25.20;;;;;;;;;;5010661;28;20656;-54
2021/11/17 16:13:07;;;;;;;45.27;23.93;;;;;;;;;;5009878;28;20724;-53
2021/11/17 16:15:34;;;;;;;45.23;23.03;;;;;;;;;;4997742;28;20198;-53
2021/11/17 16:18:03;;;;;;;62.83;25.97;;;;;;;;;;4991344;28;20210;-52
2021/11/17 16:20:33;;;;;;;47.20;23.20;;;;;;;;;;4975779;28;20183;-52
2021/11/17 16:25:49;;;;;;;44.77;23.67;;;;;;;;;;5002092;28;20191;-53
2021/11/17 16:28:22;;;;;;;44.37;24.53;;;;;;;;;;4979392;28;20186;-54
2021/11/17 16:30:49;;;;;;;47.57;24.97;;;;;;;;;;4993533;28;20218;-53
2021/11/17 16:33:17;;;;;;;56.43;24.53;;;;;;;;;;4986837;28;20199;-53
2021/11/17 16:35:43;;;;;;;41.40;24.13;;;;;;;;;;4982534;28;20194;-52
2021/11/17 16:38:11;;;;;;;48.23;23.20;;;;;;;;;;4987872;28;20458;-53
2021/11/17 16:40:38;;;;;;;48.97;24.23;;;;;;;;;;4992672;28;20644;-53
2021/11/17 16:43:06;;;;;;;40.77;23.13;;;;;;;;;;5000509;28;20218;-53
2021/11/17 16:45:32;;;;;;;48.63;25.23;;;;;;;;;;5002174;28;20238;-55
2021/11/17 16:47:58;;;;;;;41.10;22.03;;;;;;;;;;4992332;28;20748;-53
2021/11/17 16:50:25;;;;;;;48.10;23.10;;;;;;;;;;5007293;28;20347;-53
2021/11/17 16:52:52;;;;;;;37.83;21.30;;;;;;;;;;4990336;28;20190;-53
2021/11/17 16:55:23;;;;;;;40.13;22.47;;;;;;;;;;5009696;28;20186;-53
2021/11/17 16:57:50;;;;;;;43.33;23.23;;;;;;;;;;4996007;28;20300;-53
2021/11/17 17:00:27;;;;;;;41.73;22.43;;;;;;;;;;5009103;28;20679;-53
2021/11/17 17:02:53;;;;;;;44.47;24.07;;;;;;;;;;4979559;28;20189;-53
2021/11/17 17:05:21;;;;;;;40.70;23.47;;;;;;;;;;5010172;28;20573;-53
2021/11/17 17:07:47;;;;;;;45.20;23.60;;;;;;;;;;5008565;28;20187;-55
2021/11/17 17:10:16;;;;;;;41.53;24.17;;;;;;;;;;4985131;28;20724;-52
2021/11/17 17:12:42;;;;;;;52.57;25.00;;;;;;;;;;4999503;28;20257;-53